sensor_id;sensor_type;location;lat;lon;timestamp;P1;P2;P0
76784;PMS7003;66893;44.316;0.092;2024-03-02T00:01:11;2.00;1.00;1.00
76784;PMS7003;66893;44.316;0.092;2024-03-02T00:03:37;2.00;0.00;0.00
76784;PMS7003;66893;44.316;0.092;2024-03-02T00:06:03;0.00;0.00;0.00
76784;PMS7003;66893;44.316;0.092;2024-03-02T00:08:29;0.25;0.25;0.25
76784;PMS7003;66893;44.316;0.092;2024-03-02T00:10:58;0.25;0.25;0.25
76784;PMS7003;66893;44.316;0.092;2024-03-02T00:13:25;0.75;0.75;0.00
76784;PMS7003;66893;44.316;0.092;2024-03-02T00:15:54;0.75;0.00;0.00
76784;PMS7003;66893;44.316;0.092;2024-03-02T00:18:24;0.25;0.00;0.00
76784;PMS7003;66893;44.316;0.092;2024-03-02T00:20:52;0.00;0.00;0.00
76784;PMS7003;66893;44.316;0.092;2024-03-02T00:23:20;0.00;0.00;0.00
76784;PMS7003;66893;44.316;0.092;2024-03-02T00:25:47;0.00;0.00;0.00
76784;PMS7003;66893;44.316;0.092;2024-03-02T00:30:57;1.75;1.00;1.00
76784;PMS7003;66893;44.316;0.092;2024-03-02T00:33:25;0.75;0.75;0.50
76784;PMS7003;66893;44.316;0.092;2024-03-02T00:35:52;1.00;0.00;0.00
76784;PMS7003;66893;44.316;0.092;2024-03-02T00:38:18;1.00;1.00;0.00
76784;PMS7003;66893;44.316;0.092;2024-03-02T00:40:44;1.00;1.00;0.50
76784;PMS7003;66893;44.316;0.092;2024-03-02T00:46:04;0.00;0.00;0.00
76784;PMS7003;66893;44.316;0.092;2024-03-02T00:48:30;0.00;0.00;0.00
76784;PMS7003;66893;44.316;0.092;2024-03-02T00:51:01;0.00;0.00;0.00
76784;PMS7003;66893;44.316;0.092;2024-03-02T00:53:28;0.00;0.00;0.00
76784;PMS7003;66893;44.316;0.092;2024-03-02T00:55:55;0.00;0.00;0.00
76784;PMS7003;66893;44.316;0.092;2024-03-02T00:58:21;0.25;0.25;0.00
76784;PMS7003;66893;44.316;0.092;2024-03-02T01:00:46;2.25;1.00;0.00
76784;PMS7003;66893;44.316;0.092;2024-03-02T01:03:12;1.25;0.00;0.00
76784;PMS7003;66893;44.316;0.092;2024-03-02T01:05:41;0.00;0.00;0.00
76784;PMS7003;66893;44.316;0.092;2024-03-02T01:08:07;0.00;0.00;0.00
76784;PMS7003;66893;44.316;0.092;2024-03-02T01:10:33;4.00;0.00;0.00
76784;PMS7003;66893;44.316;0.092;2024-03-02T01:12:58;0.00;0.00;0.00
76784;PMS7003;66893;44.316;0.092;2024-03-02T01:15:24;0.50;0.00;0.00
76784;PMS7003;66893;44.316;0.092;2024-03-02T01:17:49;0.25;0.25;0.00
76784;PMS7003;66893;44.316;0.092;2024-03-02T01:20:14;0.00;0.00;0.00
76784;PMS7003;66893;44.316;0.092;2024-03-02T01:22:40;0.00;0.00;0.00
76784;PMS7003;66893;44.316;0.092;2024-03-02T01:25:05;0.75;0.75;0.00
76784;PMS7003;66893;44.316;0.092;2024-03-02T01:27:31;0.75;0.75;0.00
76784;PMS7003;66893;44.316;0.092;2024-03-02T01:29:56;0.50;0.50;0.00
76784;PMS7003;66893;44.316;0.092;2024-03-02T01:32:22;1.00;0.00;0.00
76784;PMS7003;66893;44.316;0.092;2024-03-02T01:34:47;2.00;0.00;0.00
76784;PMS7003;66893;44.316;0.092;2024-03-02T01:37:13;0.00;0.00;0.00
76784;PMS7003;66893;44.316;0.092;2024-03-02T01:39:38;0.00;0.00;0.00
76784;PMS7003;66893;44.316;0.092;2024-03-02T01:42:04;0.00;0.00;0.00
76784;PMS7003;66893;44.316;0.092;2024-03-02T01:44:30;0.00;0.00;0.00
76784;PMS7003;66893;44.316;0.092;2024-03-02T01:46:55;0.50;0.00;0.00
76784;PMS7003;66893;44.316;0.092;2024-03-02T01:49:20;0.75;0.00;0.00
76784;PMS7003;66893;44.316;0.092;2024-03-02T01:51:46;1.00;0.00;0.00
76784;PMS7003;66893;44.316;0.092;2024-03-02T01:54:11;0.00;0.00;0.00
76784;PMS7003;66893;44.316;0.092;2024-03-02T01:56:37;1.00;0.50;0.00
76784;PMS7003;66893;44.316;0.092;2024-03-02T01:59:02;0.50;0.00;0.00
76784;PMS7003;66893;44.316;0.092;2024-03-02T02:01:28;0.00;0.00;0.00
76784;PMS7003;66893;44.316;0.092;2024-03-02T02:03:54;0.00;0.00;0.00
76784;PMS7003;66893;44.316;0.092;2024-03-02T02:06:19;0.00;0.00;0.00
76784;PMS7003;66893;44.316;0.092;2024-03-02T02:08:45;1.00;0.00;0.00
76784;PMS7003;66893;44.316;0.092;2024-03-02T02:11:14;0.00;0.00;0.00
76784;PMS7003;66893;44.316;0.092;2024-03-02T02:13:40;2.00;0.00;0.00
76784;PMS7003;66893;44.316;0.092;2024-03-02T02:16:06;0.25;0.00;0.00
76784;PMS7003;66893;44.316;0.092;2024-03-02T02:18:32;0.00;0.00;0.00
76784;PMS7003;66893;44.316;0.092;2024-03-02T02:20:58;0.00;0.00;0.00
76784;PMS7003;66893;44.316;0.092;2024-03-02T02:23:23;0.00;0.00;0.00
76784;PMS7003;66893;44.316;0.092;2024-03-02T02:25:49;1.00;0.00;0.00
76784;PMS7003;66893;44.316;0.092;2024-03-02T02:28:14;0.75;0.00;0.00
76784;PMS7003;66893;44.316;0.092;2024-03-02T02:30:39;1.00;0.00;0.00
76784;PMS7003;66893;44.316;0.092;2024-03-02T02:33:05;0.00;0.00;0.00
76784;PMS7003;66893;44.316;0.092;2024-03-02T02:35:30;1.00;0.00;0.00
76784;PMS7003;66893;44.316;0.092;2024-03-02T02:37:56;0.00;0.00;0.00
76784;PMS7003;66893;44.316;0.092;2024-03-02T02:40:23;1.00;1.00;0.00
76784;PMS7003;66893;44.316;0.092;2024-03-02T02:42:49;0.00;0.00;0.00
76784;PMS7003;66893;44.316;0.092;2024-03-02T02:45:14;2.00;1.00;1.00
76784;PMS7003;66893;44.316;0.092;2024-03-02T02:47:44;2.00;0.00;0.00
76784;PMS7003;66893;44.316;0.092;2024-03-02T02:50:10;0.00;0.00;0.00
76784;PMS7003;66893;44.316;0.092;2024-03-02T02:52:37;0.00;0.00;0.00
76784;PMS7003;66893;44.316;0.092;2024-03-02T02:55:05;3.75;1.00;0.00
76784;PMS7003;66893;44.316;0.092;2024-03-02T02:57:36;2.25;0.00;0.00
76784;PMS7003;66893;44.316;0.092;2024-03-02T03:00:07;0.50;0.00;0.00
76784;PMS7003;66893;44.316;0.092;2024-03-02T03:02:42;0.75;0.75;0.25
76784;PMS7003;66893;44.316;0.092;2024-03-02T03:05:09;0.75;0.00;0.00
76784;PMS7003;66893;44.316;0.092;2024-03-02T03:07:36;1.50;0.00;0.00
76784;PMS7003;66893;44.316;0.092;2024-03-02T03:10:02;2.00;1.00;1.00
76784;PMS7003;66893;44.316;0.092;2024-03-02T03:12:29;0.00;0.00;0.00
76784;PMS7003;66893;44.316;0.092;2024-03-02T03:14:56;0.00;0.00;0.00
76784;PMS7003;66893;44.316;0.092;2024-03-02T03:17:22;0.50;0.50;0.00
76784;PMS7003;66893;44.316;0.092;2024-03-02T03:19:48;0.00;0.00;0.00
76784;PMS7003;66893;44.316;0.092;2024-03-02T03:22:14;0.00;0.00;0.00
76784;PMS7003;66893;44.316;0.092;2024-03-02T03:24:39;1.00;1.00;0.00
76784;PMS7003;66893;44.316;0.092;2024-03-02T03:27:04;0.00;0.00;0.00
76784;PMS7003;66893;44.316;0.092;2024-03-02T03:29:30;0.00;0.00;0.00
76784;PMS7003;66893;44.316;0.092;2024-03-02T03:31:55;0.00;0.00;0.00
76784;PMS7003;66893;44.316;0.092;2024-03-02T03:34:21;0.00;0.00;0.00
76784;PMS7003;66893;44.316;0.092;2024-03-02T03:36:46;1.00;1.00;1.00
76784;PMS7003;66893;44.316;0.092;2024-03-02T03:39:12;0.00;0.00;0.00
76784;PMS7003;66893;44.316;0.092;2024-03-02T03:41:37;0.75;0.25;0.00
76784;PMS7003;66893;44.316;0.092;2024-03-02T03:44:02;0.25;0.25;0.00
76784;PMS7003;66893;44.316;0.092;2024-03-02T03:46:28;0.00;0.00;0.00
76784;PMS7003;66893;44.316;0.092;2024-03-02T03:48:54;0.00;0.00;0.00
76784;PMS7003;66893;44.316;0.092;2024-03-02T03:51:21;1.00;0.00;0.00
76784;PMS7003;66893;44.316;0.092;2024-03-02T03:53:47;1.50;0.00;0.00
76784;PMS7003;66893;44.316;0.092;2024-03-02T03:56:13;0.00;0.00;0.00
76784;PMS7003;66893;44.316;0.092;2024-03-02T03:58:39;0.00;0.00;0.00
76784;PMS7003;66893;44.316;0.092;2024-03-02T04:01:04;0.00;0.00;0.00
76784;PMS7003;66893;44.316;0.092;2024-03-02T04:03:29;0.00;0.00;0.00
76784;PMS7003;66893;44.316;0.092;2024-03-02T04:05:55;0.00;0.00;0.00
76784;PMS7003;66893;44.316;0.092;2024-03-02T04:08:21;0.25;0.00;0.00
76784;PMS7003;66893;44.316;0.092;2024-03-02T04:10:46;0.75;0.75;0.00
76784;PMS7003;66893;44.316;0.092;2024-03-02T04:13:12;0.00;0.00;0.00
76784;PMS7003;66893;44.316;0.092;2024-03-02T04:15:37;0.00;0.00;0.00
76784;PMS7003;66893;44.316;0.092;2024-03-02T04:18:03;0.00;0.00;0.00
76784;PMS7003;66893;44.316;0.092;2024-03-02T04:20:28;1.00;0.00;0.00
76784;PMS7003;66893;44.316;0.092;2024-03-02T04:22:55;0.00;0.00;0.00
76784;PMS7003;66893;44.316;0.092;2024-03-02T04:25:20;1.00;0.00;0.00
76784;PMS7003;66893;44.316;0.092;2024-03-02T04:27:46;0.00;0.00;0.00
76784;PMS7003;66893;44.316;0.092;2024-03-02T04:30:12;0.75;0.00;0.00
76784;PMS7003;66893;44.316;0.092;2024-03-02T04:32:37;0.75;0.00;0.00
76784;PMS7003;66893;44.316;0.092;2024-03-02T04:35:04;0.00;0.00;0.00
76784;PMS7003;66893;44.316;0.092;2024-03-02T04:37:30;0.75;0.00;0.00
76784;PMS7003;66893;44.316;0.092;2024-03-02T04:39:56;0.00;0.00;0.00
76784;PMS7003;66893;44.316;0.092;2024-03-02T04:42:22;0.00;0.00;0.00
76784;PMS7003;66893;44.316;0.092;2024-03-02T04:44:48;0.75;0.00;0.00
76784;PMS7003;66893;44.316;0.092;2024-03-02T04:47:13;2.00;0.00;0.00
76784;PMS7003;66893;44.316;0.092;2024-03-02T04:49:39;0.00;0.00;0.00
76784;PMS7003;66893;44.316;0.092;2024-03-02T04:52:04;0.00;0.00;0.00
76784;PMS7003;66893;44.316;0.092;2024-03-02T04:54:30;0.00;0.00;0.00
76784;PMS7003;66893;44.316;0.092;2024-03-02T04:56:55;0.00;0.00;0.00
76784;PMS7003;66893;44.316;0.092;2024-03-02T04:59:20;0.00;0.00;0.00
76784;PMS7003;66893;44.316;0.092;2024-03-02T05:01:46;0.00;0.00;0.00
76784;PMS7003;66893;44.316;0.092;2024-03-02T05:04:12;0.00;0.00;0.00
76784;PMS7003;66893;44.316;0.092;2024-03-02T05:06:38;0.00;0.00;0.00
76784;PMS7003;66893;44.316;0.092;2024-03-02T05:09:05;0.00;0.00;0.00
76784;PMS7003;66893;44.316;0.092;2024-03-02T05:11:31;0.00;0.00;0.00
76784;PMS7003;66893;44.316;0.092;2024-03-02T05:14:03;0.00;0.00;0.00
76784;PMS7003;66893;44.316;0.092;2024-03-02T05:16:28;1.25;0.00;0.00
76784;PMS7003;66893;44.316;0.092;2024-03-02T05:18:54;0.00;0.00;0.00
76784;PMS7003;66893;44.316;0.092;2024-03-02T05:21:20;0.00;0.00;0.00
76784;PMS7003;66893;44.316;0.092;2024-03-02T05:23:46;0.00;0.00;0.00
76784;PMS7003;66893;44.316;0.092;2024-03-02T05:26:11;0.00;0.00;0.00
76784;PMS7003;66893;44.316;0.092;2024-03-02T05:28:39;1.00;0.00;0.00
76784;PMS7003;66893;44.316;0.092;2024-03-02T05:31:04;0.00;0.00;0.00
76784;PMS7003;66893;44.316;0.092;2024-03-02T05:33:30;0.00;0.00;0.00
76784;PMS7003;66893;44.316;0.092;2024-03-02T05:35:58;0.00;0.00;0.00
76784;PMS7003;66893;44.316;0.092;2024-03-02T05:38:23;0.00;0.00;0.00
76784;PMS7003;66893;44.316;0.092;2024-03-02T05:40:49;0.50;0.00;0.00
76784;PMS7003;66893;44.316;0.092;2024-03-02T05:43:14;0.00;0.00;0.00
76784;PMS7003;66893;44.316;0.092;2024-03-02T05:45:40;0.00;0.00;0.00
76784;PMS7003;66893;44.316;0.092;2024-03-02T05:48:08;0.75;0.00;0.00
76784;PMS7003;66893;44.316;0.092;2024-03-02T05:50:34;0.00;0.00;0.00
76784;PMS7003;66893;44.316;0.092;2024-03-02T05:53:00;0.00;0.00;0.00
76784;PMS7003;66893;44.316;0.092;2024-03-02T05:55:25;0.00;0.00;0.00
76784;PMS7003;66893;44.316;0.092;2024-03-02T05:57:51;1.00;0.00;0.00
76784;PMS7003;66893;44.316;0.092;2024-03-02T06:00:31;0.00;0.00;0.00
76784;PMS7003;66893;44.316;0.092;2024-03-02T06:02:57;0.00;0.00;0.00
76784;PMS7003;66893;44.316;0.092;2024-03-02T06:05:22;0.00;0.00;0.00
76784;PMS7003;66893;44.316;0.092;2024-03-02T06:07:48;0.00;0.00;0.00
76784;PMS7003;66893;44.316;0.092;2024-03-02T06:10:13;0.00;0.00;0.00
76784;PMS7003;66893;44.316;0.092;2024-03-02T06:12:39;0.00;0.00;0.00
76784;PMS7003;66893;44.316;0.092;2024-03-02T06:15:05;0.00;0.00;0.00
76784;PMS7003;66893;44.316;0.092;2024-03-02T06:17:30;0.00;0.00;0.00
76784;PMS7003;66893;44.316;0.092;2024-03-02T06:19:56;0.25;0.00;0.00
76784;PMS7003;66893;44.316;0.092;2024-03-02T06:22:21;0.00;0.00;0.00
76784;PMS7003;66893;44.316;0.092;2024-03-02T06:24:49;0.00;0.00;0.00
76784;PMS7003;66893;44.316;0.092;2024-03-02T06:27:15;0.00;0.00;0.00
76784;PMS7003;66893;44.316;0.092;2024-03-02T06:29:41;0.00;0.00;0.00
76784;PMS7003;66893;44.316;0.092;2024-03-02T06:32:06;0.00;0.00;0.00
76784;PMS7003;66893;44.316;0.092;2024-03-02T06:34:32;0.75;0.00;0.00
76784;PMS7003;66893;44.316;0.092;2024-03-02T06:36:57;0.00;0.00;0.00
76784;PMS7003;66893;44.316;0.092;2024-03-02T06:39:23;0.75;0.00;0.00
76784;PMS7003;66893;44.316;0.092;2024-03-02T06:41:48;0.00;0.00;0.00
76784;PMS7003;66893;44.316;0.092;2024-03-02T06:44:14;0.00;0.00;0.00
76784;PMS7003;66893;44.316;0.092;2024-03-02T06:46:39;1.00;1.00;0.00
76784;PMS7003;66893;44.316;0.092;2024-03-02T06:49:05;0.00;0.00;0.00
76784;PMS7003;66893;44.316;0.092;2024-03-02T06:51:30;1.00;0.00;0.00
76784;PMS7003;66893;44.316;0.092;2024-03-02T06:53:56;0.00;0.00;0.00
76784;PMS7003;66893;44.316;0.092;2024-03-02T06:56:21;0.00;0.00;0.00
76784;PMS7003;66893;44.316;0.092;2024-03-02T06:58:47;0.00;0.00;0.00
76784;PMS7003;66893;44.316;0.092;2024-03-02T07:01:12;0.50;0.00;0.00
76784;PMS7003;66893;44.316;0.092;2024-03-02T07:03:38;0.00;0.00;0.00
76784;PMS7003;66893;44.316;0.092;2024-03-02T07:06:04;0.25;0.00;0.00
76784;PMS7003;66893;44.316;0.092;2024-03-02T07:08:30;0.00;0.00;0.00
76784;PMS7003;66893;44.316;0.092;2024-03-02T07:10:56;0.00;0.00;0.00
76784;PMS7003;66893;44.316;0.092;2024-03-02T07:13:22;0.00;0.00;0.00
76784;PMS7003;66893;44.316;0.092;2024-03-02T07:15:48;0.00;0.00;0.00
76784;PMS7003;66893;44.316;0.092;2024-03-02T07:18:33;0.50;0.00;0.00
76784;PMS7003;66893;44.316;0.092;2024-03-02T07:21:00;1.50;0.00;0.00
76784;PMS7003;66893;44.316;0.092;2024-03-02T07:23:28;0.00;0.00;0.00
76784;PMS7003;66893;44.316;0.092;2024-03-02T07:25:55;0.00;0.00;0.00
76784;PMS7003;66893;44.316;0.092;2024-03-02T07:28:21;0.00;0.00;0.00
76784;PMS7003;66893;44.316;0.092;2024-03-02T07:30:57;0.00;0.00;0.00
76784;PMS7003;66893;44.316;0.092;2024-03-02T07:33:31;0.00;0.00;0.00
76784;PMS7003;66893;44.316;0.092;2024-03-02T07:35:57;0.00;0.00;0.00
76784;PMS7003;66893;44.316;0.092;2024-03-02T07:38:24;0.00;0.00;0.00
76784;PMS7003;66893;44.316;0.092;2024-03-02T07:40:50;0.00;0.00;0.00
76784;PMS7003;66893;44.316;0.092;2024-03-02T07:43:16;0.00;0.00;0.00
76784;PMS7003;66893;44.316;0.092;2024-03-02T07:45:42;0.00;0.00;0.00
76784;PMS7003;66893;44.316;0.092;2024-03-02T07:48:08;0.00;0.00;0.00
76784;PMS7003;66893;44.316;0.092;2024-03-02T07:50:33;0.00;0.00;0.00
76784;PMS7003;66893;44.316;0.092;2024-03-02T07:53:00;0.00;0.00;0.00
76784;PMS7003;66893;44.316;0.092;2024-03-02T07:55:26;0.00;0.00;0.00
76784;PMS7003;66893;44.316;0.092;2024-03-02T07:57:52;0.00;0.00;0.00
76784;PMS7003;66893;44.316;0.092;2024-03-02T08:00:17;0.00;0.00;0.00
76784;PMS7003;66893;44.316;0.092;2024-03-02T08:02:43;0.00;0.00;0.00
76784;PMS7003;66893;44.316;0.092;2024-03-02T08:05:09;2.00;0.00;0.00
76784;PMS7003;66893;44.316;0.092;2024-03-02T08:07:34;0.00;0.00;0.00
76784;PMS7003;66893;44.316;0.092;2024-03-02T08:10:00;0.00;0.00;0.00
76784;PMS7003;66893;44.316;0.092;2024-03-02T08:12:25;0.00;0.00;0.00
76784;PMS7003;66893;44.316;0.092;2024-03-02T08:14:51;0.00;0.00;0.00
76784;PMS7003;66893;44.316;0.092;2024-03-02T08:17:16;0.00;0.00;0.00
76784;PMS7003;66893;44.316;0.092;2024-03-02T08:19:42;0.00;0.00;0.00
76784;PMS7003;66893;44.316;0.092;2024-03-02T08:22:08;0.00;0.00;0.00
76784;PMS7003;66893;44.316;0.092;2024-03-02T08:24:34;0.00;0.00;0.00
76784;PMS7003;66893;44.316;0.092;2024-03-02T08:27:01;2.00;0.00;0.00
76784;PMS7003;66893;44.316;0.092;2024-03-02T08:29:26;0.00;0.00;0.00
76784;PMS7003;66893;44.316;0.092;2024-03-02T08:31:53;0.00;0.00;0.00
76784;PMS7003;66893;44.316;0.092;2024-03-02T08:34:18;1.50;0.00;0.00
76784;PMS7003;66893;44.316;0.092;2024-03-02T08:36:44;0.00;0.00;0.00
76784;PMS7003;66893;44.316;0.092;2024-03-02T08:39:10;0.00;0.00;0.00
76784;PMS7003;66893;44.316;0.092;2024-03-02T08:41:41;1.00;0.00;0.00
76784;PMS7003;66893;44.316;0.092;2024-03-02T08:44:08;1.00;1.00;0.50
76784;PMS7003;66893;44.316;0.092;2024-03-02T08:46:33;1.50;0.00;0.00
76784;PMS7003;66893;44.316;0.092;2024-03-02T08:48:59;0.00;0.00;0.00
76784;PMS7003;66893;44.316;0.092;2024-03-02T08:51:25;0.00;0.00;0.00
76784;PMS7003;66893;44.316;0.092;2024-03-02T08:53:50;0.00;0.00;0.00
76784;PMS7003;66893;44.316;0.092;2024-03-02T08:56:16;0.00;0.00;0.00
76784;PMS7003;66893;44.316;0.092;2024-03-02T08:58:41;0.00;0.00;0.00
76784;PMS7003;66893;44.316;0.092;2024-03-02T09:01:07;0.00;0.00;0.00
76784;PMS7003;66893;44.316;0.092;2024-03-02T09:03:33;0.50;0.50;0.00
76784;PMS7003;66893;44.316;0.092;2024-03-02T09:06:00;0.00;0.00;0.00
76784;PMS7003;66893;44.316;0.092;2024-03-02T09:08:25;0.00;0.00;0.00
76784;PMS7003;66893;44.316;0.092;2024-03-02T09:10:51;0.00;0.00;0.00
76784;PMS7003;66893;44.316;0.092;2024-03-02T09:13:17;1.50;0.00;0.00
76784;PMS7003;66893;44.316;0.092;2024-03-02T09:15:42;0.00;0.00;0.00
76784;PMS7003;66893;44.316;0.092;2024-03-02T09:18:09;1.00;1.00;0.00
76784;PMS7003;66893;44.316;0.092;2024-03-02T09:20:35;0.75;0.75;0.25
76784;PMS7003;66893;44.316;0.092;2024-03-02T09:23:00;1.00;1.00;1.00
76784;PMS7003;66893;44.316;0.092;2024-03-02T09:25:26;1.00;1.00;0.25
76784;PMS7003;66893;44.316;0.092;2024-03-02T09:27:51;0.75;0.75;0.75
76784;PMS7003;66893;44.316;0.092;2024-03-02T09:30:17;1.00;1.00;1.00
76784;PMS7003;66893;44.316;0.092;2024-03-02T09:32:42;1.00;1.00;1.00
76784;PMS7003;66893;44.316;0.092;2024-03-02T09:35:08;2.00;2.00;1.00
76784;PMS7003;66893;44.316;0.092;2024-03-02T09:37:34;1.50;1.50;1.00
76784;PMS7003;66893;44.316;0.092;2024-03-02T09:40:00;2.00;2.00;1.25
76784;PMS7003;66893;44.316;0.092;2024-03-02T09:42:26;2.00;2.00;1.00
76784;PMS7003;66893;44.316;0.092;2024-03-02T09:44:52;2.00;2.00;1.50
76784;PMS7003;66893;44.316;0.092;2024-03-02T09:47:19;1.00;1.00;1.00
76784;PMS7003;66893;44.316;0.092;2024-03-02T09:49:44;1.00;1.00;1.00
76784;PMS7003;66893;44.316;0.092;2024-03-02T09:52:10;2.25;2.00;1.00
76784;PMS7003;66893;44.316;0.092;2024-03-02T09:54:36;3.00;1.00;1.00
76784;PMS7003;66893;44.316;0.092;2024-03-02T09:57:04;5.00;2.25;1.75
76784;PMS7003;66893;44.316;0.092;2024-03-02T09:59:29;0.25;0.25;0.25
76784;PMS7003;66893;44.316;0.092;2024-03-02T10:01:55;2.00;2.00;2.00
76784;PMS7003;66893;44.316;0.092;2024-03-02T10:04:25;2.50;1.50;1.00
76784;PMS7003;66893;44.316;0.092;2024-03-02T10:06:51;2.00;2.00;1.00
76784;PMS7003;66893;44.316;0.092;2024-03-02T10:09:34;1.50;1.50;1.00
76784;PMS7003;66893;44.316;0.092;2024-03-02T10:12:06;3.00;2.00;1.00
76784;PMS7003;66893;44.316;0.092;2024-03-02T10:14:36;3.00;3.00;2.00
76784;PMS7003;66893;44.316;0.092;2024-03-02T10:17:03;2.00;2.00;1.00
76784;PMS7003;66893;44.316;0.092;2024-03-02T10:19:30;3.00;1.25;1.25
76784;PMS7003;66893;44.316;0.092;2024-03-02T10:22:03;2.00;2.00;2.00
76784;PMS7003;66893;44.316;0.092;2024-03-02T10:24:38;2.75;2.00;2.00
76784;PMS7003;66893;44.316;0.092;2024-03-02T10:27:08;4.25;3.25;2.50
76784;PMS7003;66893;44.316;0.092;2024-03-02T10:29:38;4.50;3.75;3.00
76784;PMS7003;66893;44.316;0.092;2024-03-02T10:32:05;2.75;2.75;2.25
76784;PMS7003;66893;44.316;0.092;2024-03-02T10:34:34;3.00;3.00;2.75
76784;PMS7003;66893;44.316;0.092;2024-03-02T10:37:00;3.00;3.00;3.00
76784;PMS7003;66893;44.316;0.092;2024-03-02T10:39:26;2.25;2.25;2.00
76784;PMS7003;66893;44.316;0.092;2024-03-02T10:41:52;2.25;2.25;2.00
76784;PMS7003;66893;44.316;0.092;2024-03-02T10:44:20;2.75;2.00;1.75
76784;PMS7003;66893;44.316;0.092;2024-03-02T10:46:47;1.50;1.50;1.00
76784;PMS7003;66893;44.316;0.092;2024-03-02T10:49:15;3.25;3.25;2.50
76784;PMS7003;66893;44.316;0.092;2024-03-02T10:51:42;4.00;2.75;2.00
76784;PMS7003;66893;44.316;0.092;2024-03-02T10:54:08;4.75;4.00;3.00
76784;PMS7003;66893;44.316;0.092;2024-03-02T10:56:34;3.50;2.50;1.50
76784;PMS7003;66893;44.316;0.092;2024-03-02T10:59:21;1.25;0.50;0.50
76784;PMS7003;66893;44.316;0.092;2024-03-02T11:01:50;2.25;2.25;1.25
76784;PMS7003;66893;44.316;0.092;2024-03-02T11:04:16;1.75;1.75;1.75
76784;PMS7003;66893;44.316;0.092;2024-03-02T11:06:45;4.50;2.75;2.50
76784;PMS7003;66893;44.316;0.092;2024-03-02T11:09:14;1.25;1.25;1.25
76784;PMS7003;66893;44.316;0.092;2024-03-02T11:11:42;2.00;2.00;1.75
76784;PMS7003;66893;44.316;0.092;2024-03-02T11:14:13;5.00;2.25;2.00
76784;PMS7003;66893;44.316;0.092;2024-03-02T11:16:41;2.25;1.50;1.50
76784;PMS7003;66893;44.316;0.092;2024-03-02T11:19:09;1.25;1.25;1.25
76784;PMS7003;66893;44.316;0.092;2024-03-02T11:21:36;1.75;1.75;1.75
76784;PMS7003;66893;44.316;0.092;2024-03-02T11:26:47;1.25;1.25;1.00
76784;PMS7003;66893;44.316;0.092;2024-03-02T11:32:00;1.50;1.50;1.50
76784;PMS7003;66893;44.316;0.092;2024-03-02T11:34:32;2.75;1.50;1.25
76784;PMS7003;66893;44.316;0.092;2024-03-02T11:37:02;3.00;1.00;1.00
76784;PMS7003;66893;44.316;0.092;2024-03-02T11:39:28;1.50;1.50;1.00
76784;PMS7003;66893;44.316;0.092;2024-03-02T11:41:55;2.75;0.75;0.75
76784;PMS7003;66893;44.316;0.092;2024-03-02T11:44:22;0.75;0.75;0.75
76784;PMS7003;66893;44.316;0.092;2024-03-02T11:47:00;1.75;1.50;1.00
76784;PMS7003;66893;44.316;0.092;2024-03-02T11:49:36;1.00;1.00;0.25
76784;PMS7003;66893;44.316;0.092;2024-03-02T11:52:06;2.50;2.50;2.00
76784;PMS7003;66893;44.316;0.092;2024-03-02T11:54:34;28.50;10.50;3.00
76784;PMS7003;66893;44.316;0.092;2024-03-02T11:57:01;3.75;1.75;1.00
76784;PMS7003;66893;44.316;0.092;2024-03-02T11:59:31;4.25;2.00;1.75
76784;PMS7003;66893;44.316;0.092;2024-03-02T12:01:57;1.75;1.75;1.75
76784;PMS7003;66893;44.316;0.092;2024-03-02T12:04:23;1.00;1.00;0.75
76784;PMS7003;66893;44.316;0.092;2024-03-02T12:06:59;1.50;0.75;0.25
76784;PMS7003;66893;44.316;0.092;2024-03-02T12:09:25;0.75;0.50;0.50
76784;PMS7003;66893;44.316;0.092;2024-03-02T12:12:01;0.75;0.25;0.25
76784;PMS7003;66893;44.316;0.092;2024-03-02T12:14:35;0.75;0.75;0.50
76784;PMS7003;66893;44.316;0.092;2024-03-02T12:17:01;0.75;0.75;0.75
76784;PMS7003;66893;44.316;0.092;2024-03-02T12:19:27;0.00;0.00;0.00
76784;PMS7003;66893;44.316;0.092;2024-03-02T12:21:55;0.75;0.75;0.75
76784;PMS7003;66893;44.316;0.092;2024-03-02T12:24:24;0.50;0.50;0.25
76784;PMS7003;66893;44.316;0.092;2024-03-02T12:26:51;1.75;0.50;0.00
76784;PMS7003;66893;44.316;0.092;2024-03-02T12:29:20;1.00;1.00;0.75
76784;PMS7003;66893;44.316;0.092;2024-03-02T12:31:50;0.50;0.50;0.00
76784;PMS7003;66893;44.316;0.092;2024-03-02T12:34:17;0.25;0.00;0.00
76784;PMS7003;66893;44.316;0.092;2024-03-02T12:36:43;2.00;0.00;0.00
76784;PMS7003;66893;44.316;0.092;2024-03-02T12:39:13;1.25;0.00;0.00
76784;PMS7003;66893;44.316;0.092;2024-03-02T12:41:39;0.75;0.75;0.75
76784;PMS7003;66893;44.316;0.092;2024-03-02T12:44:05;1.00;1.00;0.50
76784;PMS7003;66893;44.316;0.092;2024-03-02T12:46:31;0.00;0.00;0.00
76784;PMS7003;66893;44.316;0.092;2024-03-02T12:48:57;2.00;2.00;1.00
76784;PMS7003;66893;44.316;0.092;2024-03-02T12:51:32;3.75;1.00;0.75
76784;PMS7003;66893;44.316;0.092;2024-03-02T12:53:57;0.25;0.25;0.25
76784;PMS7003;66893;44.316;0.092;2024-03-02T12:56:26;1.50;1.50;1.00
76784;PMS7003;66893;44.316;0.092;2024-03-02T12:58:53;1.25;1.25;1.00
76784;PMS7003;66893;44.316;0.092;2024-03-02T13:01:19;0.50;0.50;0.25
76784;PMS7003;66893;44.316;0.092;2024-03-02T13:03:45;1.25;1.25;1.00
76784;PMS7003;66893;44.316;0.092;2024-03-02T13:06:10;0.50;0.50;0.00
76784;PMS7003;66893;44.316;0.092;2024-03-02T13:08:36;1.00;1.00;1.00
76784;PMS7003;66893;44.316;0.092;2024-03-02T13:11:02;0.75;0.75;0.50
76784;PMS7003;66893;44.316;0.092;2024-03-02T13:13:30;1.00;1.00;0.00
76784;PMS7003;66893;44.316;0.092;2024-03-02T13:15:56;1.25;1.25;1.00
76784;PMS7003;66893;44.316;0.092;2024-03-02T13:18:22;1.00;1.00;1.00
76784;PMS7003;66893;44.316;0.092;2024-03-02T13:20:47;1.50;1.00;1.00
76784;PMS7003;66893;44.316;0.092;2024-03-02T13:23:13;2.25;2.00;2.00
76784;PMS7003;66893;44.316;0.092;2024-03-02T13:25:39;1.25;1.25;1.00
76784;PMS7003;66893;44.316;0.092;2024-03-02T13:28:05;1.50;1.50;1.25
76784;PMS7003;66893;44.316;0.092;2024-03-02T13:30:31;1.25;0.75;0.75
76784;PMS7003;66893;44.316;0.092;2024-03-02T13:32:57;0.75;0.75;0.75
76784;PMS7003;66893;44.316;0.092;2024-03-02T13:35:23;5.50;4.75;4.75
76784;PMS7003;66893;44.316;0.092;2024-03-02T13:37:48;2.00;2.00;2.00
76784;PMS7003;66893;44.316;0.092;2024-03-02T13:40:15;3.50;3.50;2.50
76784;PMS7003;66893;44.316;0.092;2024-03-02T13:42:45;4.00;2.00;2.00
76784;PMS7003;66893;44.316;0.092;2024-03-02T13:45:14;4.75;4.75;4.00
76784;PMS7003;66893;44.316;0.092;2024-03-02T13:47:39;3.50;3.50;3.00
76784;PMS7003;66893;44.316;0.092;2024-03-02T13:50:05;3.00;3.00;2.00
76784;PMS7003;66893;44.316;0.092;2024-03-02T13:52:33;2.75;2.75;2.50
76784;PMS7003;66893;44.316;0.092;2024-03-02T13:55:02;6.75;4.50;2.75
76784;PMS7003;66893;44.316;0.092;2024-03-02T13:57:27;2.25;2.25;2.00
76784;PMS7003;66893;44.316;0.092;2024-03-02T13:59:53;2.00;2.00;1.75
76784;PMS7003;66893;44.316;0.092;2024-03-02T14:02:19;5.00;3.00;2.25
76784;PMS7003;66893;44.316;0.092;2024-03-02T14:04:45;5.25;5.25;4.00
76784;PMS7003;66893;44.316;0.092;2024-03-02T14:07:13;3.75;3.00;2.00
76784;PMS7003;66893;44.316;0.092;2024-03-02T14:09:38;3.50;2.75;2.00
76784;PMS7003;66893;44.316;0.092;2024-03-02T14:12:04;2.75;2.75;2.50
76784;PMS7003;66893;44.316;0.092;2024-03-02T14:14:31;3.50;2.50;2.00
76784;PMS7003;66893;44.316;0.092;2024-03-02T14:16:56;5.50;5.00;3.50
76784;PMS7003;66893;44.316;0.092;2024-03-02T14:19:25;3.75;3.75;2.75
76784;PMS7003;66893;44.316;0.092;2024-03-02T14:21:51;4.75;4.00;3.00
76784;PMS7003;66893;44.316;0.092;2024-03-02T14:24:16;3.00;3.00;2.25
76784;PMS7003;66893;44.316;0.092;2024-03-02T14:26:42;0.50;0.50;0.50
76784;PMS7003;66893;44.316;0.092;2024-03-02T14:29:08;6.25;4.00;3.75
76784;PMS7003;66893;44.316;0.092;2024-03-02T14:31:33;5.75;5.75;4.50